createdAt,value
2019-03-04T00:01:58.877Z,94828.31
2019-03-04T00:04:26.447Z,94821.19
2019-03-04T00:06:53.890Z,94817.93
2019-03-04T00:09:21.362Z,94814.52
2019-03-04T00:11:48.813Z,94813.78
2019-03-04T00:14:16.277Z,94812.38
2019-03-04T00:16:43.712Z,94809.22
2019-03-04T00:19:11.178Z,94804.23
2019-03-04T00:21:38.625Z,94805.06
2019-03-04T00:24:06.112Z,94803.86
2019-03-04T00:26:33.573Z,94799.71
2019-03-04T00:29:01.031Z,94801.84
2019-03-04T00:31:28.507Z,94805.63
2019-03-04T00:33:55.966Z,94803.77
2019-03-04T00:36:24.419Z,94805.89
2019-03-04T00:38:54.593Z,94799.34
2019-03-04T00:41:22.050Z,94797.76
2019-03-04T00:43:49.535Z,94785.42
2019-03-04T00:46:17.002Z,94780.36
2019-03-04T00:48:44.480Z,94782.38
2019-03-04T00:51:12.303Z,94785.63
2019-03-04T00:53:39.738Z,94784.70
2019-03-04T00:56:07.381Z,94769.59
2019-03-04T00:58:34.948Z,94764.98
2019-03-04T01:01:02.371Z,94766.19
2019-03-04T01:03:29.835Z,94764.21
2019-03-04T01:05:57.385Z,94763.22
2019-03-04T01:08:24.837Z,94750.87
2019-03-04T01:10:52.277Z,94755.16
2019-03-04T01:13:19.717Z,94749.41
2019-03-04T01:15:47.350Z,94755.42
2019-03-04T01:18:14.806Z,94758.13
2019-03-04T01:20:42.280Z,94748.72
2019-03-04T01:23:09.748Z,94745.62
2019-03-04T01:25:37.278Z,94743.00
2019-03-04T01:28:04.767Z,94747.98
2019-03-04T01:30:32.259Z,94755.50
2019-03-04T01:32:59.716Z,94748.77
2019-03-04T01:35:27.158Z,94735.81
2019-03-04T01:37:54.619Z,94738.03
2019-03-04T01:40:22.747Z,94737.73
2019-03-04T01:42:50.219Z,94720.91
2019-03-04T01:45:17.765Z,94720.26
2019-03-04T01:47:45.262Z,94734.44
2019-03-04T01:50:14.662Z,94724.42
2019-03-04T01:52:42.371Z,94712.85
2019-03-04T01:55:12.497Z,94706.09
2019-03-04T01:57:40.120Z,94701.95
2019-03-04T02:00:10.506Z,94691.28
2019-03-04T02:02:38.010Z,94702.22
2019-03-04T02:05:06.277Z,94697.50
2019-03-04T02:07:33.722Z,94704.91
2019-03-04T02:10:01.257Z,94701.65
2019-03-04T02:12:28.694Z,94708.86
2019-03-04T02:14:56.157Z,94699.26
2019-03-04T02:17:23.620Z,94703.87
2019-03-04T02:19:51.147Z,94693.90
2019-03-04T02:22:18.639Z,94690.45
2019-03-04T02:24:46.057Z,94690.27
2019-03-04T02:27:13.555Z,94690.01
2019-03-04T02:29:40.985Z,94687.22
2019-03-04T02:32:08.500Z,94684.36
2019-03-04T02:34:36.381Z,94674.91
2019-03-04T02:37:04.309Z,94676.30
2019-03-04T02:39:32.223Z,94668.91
2019-03-04T02:41:59.838Z,94663.44
2019-03-04T02:44:27.417Z,94660.67
2019-03-04T02:46:54.876Z,94658.64
2019-03-04T02:49:22.318Z,94659.01
2019-03-04T02:51:49.818Z,94652.53
2019-03-04T02:54:17.278Z,94649.28
2019-03-04T02:56:45.279Z,94649.75
2019-03-04T02:59:12.744Z,94653.46
2019-03-04T03:01:40.336Z,94650.58
2019-03-04T03:04:07.782Z,94640.77
2019-03-04T03:06:35.658Z,94630.23
2019-03-04T03:09:05.079Z,94624.78
2019-03-04T03:11:32.565Z,94624.11
2019-03-04T03:14:00.103Z,94625.41
2019-03-04T03:16:27.582Z,94624.61
2019-03-04T03:18:55.063Z,94621.36
2019-03-04T03:21:22.611Z,94612.37
2019-03-04T03:23:50.077Z,94602.41
2019-03-04T03:26:17.524Z,94604.72
2019-03-04T03:28:45.001Z,94603.31
2019-03-04T03:31:12.538Z,94601.80
2019-03-04T03:33:40.039Z,94600.09
2019-03-04T03:36:07.479Z,94594.88
2019-03-04T03:38:34.959Z,94581.82
2019-03-04T03:41:02.443Z,94574.77
2019-03-04T03:43:29.879Z,94575.22
2019-03-04T03:45:57.337Z,94572.36
2019-03-04T03:48:24.838Z,94557.53
2019-03-04T03:50:52.426Z,94540.55
2019-03-04T03:53:24.479Z,94550.71
2019-03-04T03:55:51.909Z,94551.64
2019-03-04T03:58:19.369Z,94545.17
2019-03-04T04:00:46.940Z,94534.73
2019-03-04T04:03:14.618Z,94533.17
2019-03-04T04:05:42.058Z,94528.17
2019-03-04T04:08:09.543Z,94530.28
2019-03-04T04:10:36.978Z,94530.37
2019-03-04T04:13:04.458Z,94523.81
2019-03-04T04:15:31.899Z,94528.98
2019-03-04T04:17:59.730Z,94526.69
2019-03-04T04:20:29.239Z,94517.62
2019-03-04T04:22:56.700Z,94507.00
2019-03-04T04:25:24.142Z,94510.98
2019-03-04T04:27:51.674Z,94520.03
2019-03-04T04:30:21.478Z,94519.77
2019-03-04T04:32:49.031Z,94523.34
2019-03-04T04:35:18.649Z,94522.70
2019-03-04T04:37:46.091Z,94518.81
2019-03-04T04:40:13.698Z,94511.25
2019-03-04T04:42:41.169Z,94512.27
2019-03-04T04:45:08.803Z,94503.22
2019-03-04T04:47:36.336Z,94505.23
2019-03-04T04:50:04.924Z,94505.97
2019-03-04T04:52:32.420Z,94493.23
2019-03-04T04:54:59.838Z,94493.39
2019-03-04T04:57:27.319Z,94491.26
2019-03-04T04:59:54.779Z,94490.60
2019-03-04T05:02:22.212Z,94491.55
2019-03-04T05:04:49.690Z,94500.80
2019-03-04T05:07:17.144Z,94503.08
2019-03-04T05:09:44.581Z,94491.77
2019-03-04T05:12:12.058Z,94482.15
2019-03-04T05:14:39.539Z,94493.88
2019-03-04T05:17:07.008Z,94491.56
2019-03-04T05:19:34.553Z,94489.72
2019-03-04T05:22:01.989Z,94480.64
2019-03-04T05:24:29.702Z,94473.28
2019-03-04T05:26:57.331Z,94467.08
2019-03-04T05:29:24.797Z,94453.69
2019-03-04T05:31:52.258Z,94457.73
2019-03-04T05:34:19.855Z,94456.82
2019-03-04T05:36:47.338Z,94454.14
2019-03-04T05:39:14.768Z,94439.20
2019-03-04T05:41:42.222Z,94425.44
2019-03-04T05:44:09.678Z,94429.23
2019-03-04T05:46:37.138Z,94424.41
2019-03-04T05:49:04.592Z,94429.75
2019-03-04T05:51:32.036Z,94426.53
2019-03-04T05:53:59.537Z,94422.55
2019-03-04T05:56:26.973Z,94409.09
2019-03-04T05:58:54.445Z,94406.56
2019-03-04T06:01:32.818Z,94411.47
2019-03-04T06:04:11.123Z,94409.08
2019-03-04T06:06:51.887Z,94406.92
2019-03-04T06:09:19.363Z,94407.28
2019-03-04T06:11:46.821Z,94406.56
2019-03-04T06:14:14.277Z,94401.84
2019-03-04T06:16:47.342Z,94397.27
2019-03-04T06:19:11.213Z,94384.34
2019-03-04T06:21:38.726Z,94379.15
2019-03-04T06:24:06.260Z,94381.79
2019-03-04T06:26:33.818Z,94377.56
2019-03-04T06:29:01.287Z,94370.94
2019-03-04T06:31:28.751Z,94364.28
2019-03-04T06:33:56.318Z,94367.38
2019-03-04T06:36:23.752Z,94356.77
2019-03-04T06:38:51.230Z,94342.36
2019-03-04T06:41:18.670Z,94331.21
2019-03-04T06:43:46.173Z,94337.82
2019-03-04T06:46:13.615Z,94341.64
2019-03-04T06:48:41.042Z,94346.73
2019-03-04T06:51:09.823Z,94330.73
2019-03-04T06:54:04.738Z,94305.17
2019-03-04T06:56:42.578Z,94310.79
2019-03-04T06:59:41.029Z,94312.52
2019-03-04T07:02:11.008Z,94310.34
2019-03-04T07:05:19.130Z,94300.78
2019-03-04T07:07:46.597Z,94289.27
2019-03-04T07:10:14.054Z,94305.35
2019-03-04T07:12:41.539Z,94299.95
2019-03-04T07:15:09.129Z,94296.94
2019-03-04T07:17:36.723Z,94283.84
2019-03-04T07:20:10.357Z,94285.36
2019-03-04T07:22:37.818Z,94269.75
2019-03-04T07:25:05.399Z,94247.11
2019-03-04T07:27:32.857Z,94276.52
2019-03-04T07:30:00.328Z,94249.91
2019-03-04T07:32:28.893Z,94253.80
2019-03-04T07:34:56.326Z,94234.03
2019-03-04T07:37:23.779Z,94235.30
2019-03-04T07:39:51.582Z,94230.47
2019-03-04T07:42:19.466Z,94214.42
2019-03-04T07:44:47.286Z,94211.66
2019-03-04T07:47:15.219Z,94209.44
2019-03-04T07:49:46.974Z,94188.17
2019-03-04T07:52:14.423Z,94168.81
2019-03-04T07:54:41.835Z,94169.10
2019-03-04T07:57:09.224Z,94171.02
2019-03-04T07:59:36.696Z,94168.64
2019-03-04T08:02:04.405Z,94165.60
2019-03-04T08:04:31.907Z,94165.84
2019-03-04T08:07:44.221Z,94144.81
2019-03-04T08:10:48.100Z,94130.02
2019-03-04T08:13:22.767Z,94130.45
2019-03-04T08:15:55.055Z,94147.34
2019-03-04T08:18:22.547Z,94147.78
2019-03-04T08:20:50.014Z,94141.12
2019-03-04T08:23:17.440Z,94144.45
2019-03-04T08:25:45.000Z,94154.52
2019-03-04T08:28:14.028Z,94148.67
2019-03-04T08:30:41.613Z,94129.59
2019-03-04T08:33:09.112Z,94120.69
2019-03-04T08:35:40.900Z,94118.31
2019-03-04T08:38:08.319Z,94111.36
2019-03-04T08:40:35.790Z,94088.27
2019-03-04T08:43:03.219Z,94104.40
2019-03-04T08:45:30.649Z,94083.39
2019-03-04T08:48:00.378Z,94089.92
2019-03-04T08:50:27.465Z,94083.55
2019-03-04T08:52:54.930Z,94071.20
2019-03-04T08:55:22.380Z,94076.69
2019-03-04T08:57:49.788Z,94093.33
2019-03-04T09:00:19.272Z,94082.44
2019-03-04T09:02:46.686Z,94076.83
2019-03-04T09:05:14.262Z,94081.68
2019-03-04T09:07:41.778Z,94075.06
2019-03-04T09:10:13.932Z,94074.05
2019-03-04T09:12:41.446Z,94057.26
2019-03-04T09:15:09.120Z,94062.34
2019-03-04T09:17:36.521Z,94062.31
2019-03-04T09:20:04.893Z,94048.17
2019-03-04T09:22:32.355Z,94051.84
2019-03-04T09:24:59.858Z,94041.41
2019-03-04T09:27:27.287Z,94039.55
2019-03-04T09:29:54.838Z,94027.66
2019-03-04T09:32:22.255Z,94017.98
2019-03-04T09:34:49.660Z,94017.78
2019-03-04T09:37:17.136Z,94004.25
2019-03-04T09:39:44.565Z,94007.80
2019-03-04T09:42:25.872Z,93996.16
2019-03-04T09:44:53.287Z,93983.61
2019-03-04T09:47:20.719Z,93982.38
2019-03-04T09:49:48.178Z,93983.23
2019-03-04T09:52:15.856Z,93976.41
2019-03-04T09:54:43.303Z,93981.48
2019-03-04T09:57:10.791Z,93962.88
2019-03-04T09:59:38.200Z,93960.46
2019-03-04T10:02:18.689Z,93949.06
2019-03-04T10:05:42.934Z,93943.88
2019-03-04T10:08:32.621Z,93928.34
2019-03-04T10:11:48.217Z,93914.17
2019-03-04T10:14:37.193Z,93909.44
2019-03-04T10:17:41.167Z,93898.16
2019-03-04T10:20:40.753Z,93890.94
2019-03-04T10:24:02.274Z,93886.20
2019-03-04T10:27:00.423Z,93878.02
2019-03-04T10:30:21.320Z,93858.02
2019-03-04T10:33:16.631Z,93855.05
2019-03-04T10:36:18.624Z,93856.17
2019-03-04T10:39:17.797Z,93843.33
2019-03-04T10:42:36.513Z,93837.25
2019-03-04T10:45:51.745Z,93827.73
2019-03-04T10:48:19.220Z,93822.86
2019-03-04T10:50:46.658Z,93809.85
2019-03-04T10:53:14.127Z,93814.76
2019-03-04T10:55:42.513Z,93807.14
2019-03-04T10:58:10.406Z,93798.34
2019-03-04T11:00:38.061Z,93793.75
2019-03-04T11:03:05.478Z,93785.09
2019-03-04T11:05:32.953Z,93784.08
2019-03-04T11:08:00.372Z,93790.62
2019-03-04T11:10:27.944Z,93785.01
2019-03-04T11:12:55.381Z,93785.12
2019-03-04T11:15:24.539Z,93790.44
2019-03-04T11:17:54.212Z,93783.34
2019-03-04T11:20:21.559Z,93784.91
2019-03-04T11:22:49.142Z,93779.11
2019-03-04T11:25:17.804Z,93780.13
2019-03-04T11:27:45.390Z,93778.16
2019-03-04T11:30:13.629Z,93773.66
2019-03-04T11:32:41.083Z,93771.94
2019-03-04T11:35:10.093Z,93767.98
2019-03-04T11:37:37.559Z,93783.25
2019-03-04T11:40:23.534Z,93774.48
2019-03-04T11:42:50.953Z,93774.92
2019-03-04T11:45:19.052Z,93765.63
2019-03-04T11:47:46.522Z,93768.06
2019-03-04T11:50:14.268Z,93759.07
2019-03-04T11:52:42.131Z,93764.46
2019-03-04T11:55:10.171Z,93739.06
2019-03-04T11:57:37.699Z,93727.97
2019-03-04T12:00:14.453Z,93738.80
2019-03-04T12:02:41.968Z,93734.89
2019-03-04T12:05:10.095Z,93734.95
2019-03-04T12:07:37.614Z,93727.16
2019-03-04T12:10:07.437Z,93722.11
2019-03-04T12:12:34.901Z,93723.26
2019-03-04T12:15:02.608Z,93718.97
2019-03-04T12:17:30.100Z,93715.02
2019-03-04T12:19:57.535Z,93710.70
2019-03-04T12:22:24.998Z,93695.03
2019-03-04T12:24:52.873Z,93691.27
2019-03-04T12:27:20.283Z,93700.27
2019-03-04T12:29:47.813Z,93704.25
2019-03-04T12:32:22.423Z,93692.20
2019-03-04T12:34:49.923Z,93690.14
2019-03-04T12:37:17.367Z,93687.03
2019-03-04T12:39:44.934Z,93679.80
2019-03-04T12:42:12.427Z,93674.42
2019-03-04T12:44:39.870Z,93650.23
2019-03-04T12:47:07.320Z,93680.74
2019-03-04T12:49:34.797Z,93694.41
2019-03-04T12:52:02.265Z,93676.83
2019-03-04T12:54:29.858Z,93674.04
2019-03-04T12:56:57.327Z,93694.86
2019-03-04T12:59:25.075Z,93700.91
2019-03-04T13:01:52.608Z,93714.17
2019-03-04T13:04:20.152Z,93726.59
2019-03-04T13:06:47.681Z,93731.95
2019-03-04T13:09:15.232Z,93732.66
2019-03-04T13:11:42.681Z,93733.86
2019-03-04T13:14:10.174Z,93723.95
2019-03-04T13:16:37.592Z,93735.77
2019-03-04T13:19:05.134Z,93756.92
2019-03-04T13:21:32.777Z,93758.92
2019-03-04T13:24:00.232Z,93804.13
2019-03-04T13:26:27.665Z,93775.20
2019-03-04T13:28:55.537Z,93806.46
2019-03-04T13:31:23.399Z,93825.81
2019-03-04T13:33:50.902Z,93788.74
2019-03-04T13:36:19.593Z,93831.17
2019-03-04T13:38:47.094Z,93824.02
2019-03-04T13:41:14.645Z,93856.78
2019-03-04T13:43:42.195Z,93852.09
2019-03-04T13:46:09.693Z,93865.03
2019-03-04T13:48:37.184Z,93904.23
2019-03-04T13:51:05.740Z,93931.91
2019-03-04T13:53:33.269Z,93945.58
2019-03-04T13:56:00.833Z,93935.14
2019-03-04T13:58:28.269Z,93937.55
2019-03-04T14:00:55.769Z,93964.92
2019-03-04T14:03:24.128Z,93971.20
2019-03-04T14:05:51.718Z,93961.88
2019-03-04T14:08:19.448Z,93968.69
2019-03-04T14:10:47.042Z,94031.58
2019-03-04T14:13:14.541Z,94003.72
2019-03-04T14:15:42.571Z,93999.67
2019-03-04T14:18:10.117Z,94005.98
2019-03-04T14:20:37.684Z,94009.48
2019-03-04T14:23:05.306Z,94009.39
2019-03-04T14:25:32.858Z,94021.59
2019-03-04T14:28:00.493Z,94019.65
2019-03-04T14:30:28.284Z,94054.52
2019-03-04T14:32:56.250Z,94051.16
2019-03-04T14:35:23.985Z,94040.61
2019-03-04T14:37:51.589Z,94010.49
2019-03-04T14:40:19.333Z,94032.60
2019-03-04T14:42:46.984Z,94050.12
2019-03-04T14:45:16.418Z,94039.89
2019-03-04T14:47:44.153Z,94059.54
2019-03-04T14:50:13.594Z,94061.48
2019-03-04T14:52:41.321Z,94089.94
2019-03-04T14:55:11.828Z,94110.05
2019-03-04T14:57:39.876Z,94125.09
2019-03-04T15:00:16.775Z,94128.10
2019-03-04T15:02:44.514Z,94123.56
2019-03-04T15:05:12.365Z,94129.52
2019-03-04T15:07:40.086Z,94128.62
2019-03-04T15:10:08.090Z,94126.34
2019-03-04T15:12:36.245Z,94139.55
2019-03-04T15:15:04.451Z,94130.32
2019-03-04T15:17:32.301Z,94132.55
2019-03-04T15:20:09.740Z,94139.20
2019-03-04T15:22:37.385Z,94157.15
2019-03-04T15:25:07.009Z,94166.59
2019-03-04T15:27:35.242Z,94167.80
2019-03-04T15:30:03.255Z,94157.34
2019-03-04T15:32:31.400Z,94183.76
2019-03-04T15:34:59.418Z,94198.83
2019-03-04T15:37:28.028Z,94195.69
2019-03-04T15:39:55.812Z,94198.98
2019-03-04T15:42:23.363Z,94214.77
2019-03-04T15:44:51.305Z,94213.03
2019-03-04T15:47:19.441Z,94212.95
2019-03-04T15:49:47.223Z,94213.17
2019-03-04T15:52:17.248Z,94216.30
2019-03-04T15:54:45.095Z,94214.95
2019-03-04T15:57:13.039Z,94219.27
2019-03-04T15:59:41.410Z,94223.11
2019-03-04T16:02:11.369Z,94225.10
2019-03-04T16:04:39.433Z,94223.51
2019-03-04T16:07:08.872Z,94226.19
2019-03-04T16:09:37.958Z,94223.73
2019-03-04T16:12:07.706Z,94230.34
2019-03-04T16:14:37.575Z,94223.66
2019-03-04T16:17:08.280Z,94225.39
2019-03-04T16:19:36.261Z,94211.92
2019-03-04T16:22:04.499Z,94214.98
2019-03-04T16:24:32.525Z,94218.28
2019-03-04T16:27:07.787Z,94209.65
2019-03-04T16:29:37.282Z,94230.14
2019-03-04T16:32:05.402Z,94228.38
2019-03-04T16:34:33.450Z,94236.40
2019-03-04T16:37:05.897Z,94249.88
2019-03-04T16:39:33.959Z,94242.78
2019-03-04T16:42:03.554Z,94251.42
2019-03-04T16:44:31.733Z,94240.66
2019-03-04T16:47:00.916Z,94243.39
2019-03-04T16:49:29.206Z,94244.04
2019-03-04T16:51:59.863Z,94224.31
2019-03-04T16:54:28.091Z,94232.93
2019-03-04T16:56:56.590Z,94226.36
2019-03-04T16:59:24.694Z,94214.78
2019-03-04T17:01:54.014Z,94204.61
2019-03-04T17:04:22.109Z,94158.33
2019-03-04T17:06:50.520Z,94138.92
2019-03-04T17:09:19.432Z,94145.42
2019-03-04T17:11:47.410Z,94157.64
2019-03-04T17:14:15.429Z,94176.61
2019-03-04T17:16:45.091Z,94165.84
2019-03-04T17:19:13.059Z,94161.83
2019-03-04T17:21:40.988Z,94157.92
2019-03-04T17:24:09.421Z,94147.17
2019-03-04T17:26:37.599Z,94140.59
2019-03-04T17:29:05.753Z,94158.50
2019-03-04T17:31:33.749Z,94158.87
2019-03-04T17:34:01.817Z,94161.02
2019-03-04T17:36:29.733Z,94146.74
2019-03-04T17:38:57.903Z,94151.44
2019-03-04T17:41:25.957Z,94158.88
2019-03-04T17:43:53.936Z,94154.62
2019-03-04T17:46:22.071Z,94128.03
2019-03-04T17:48:50.096Z,94135.98
2019-03-04T17:51:18.189Z,94131.33
2019-03-04T17:53:46.214Z,94126.86
2019-03-04T17:56:14.232Z,94137.34
2019-03-04T17:58:42.355Z,94113.42
2019-03-04T18:01:10.523Z,94121.06
2019-03-04T18:03:38.571Z,94108.98
2019-03-04T18:06:06.598Z,94121.46
2019-03-04T18:08:35.222Z,94134.43
2019-03-04T18:11:03.238Z,94118.30
2019-03-04T18:13:31.602Z,94112.73
2019-03-04T18:15:59.737Z,94132.63
2019-03-04T18:18:27.862Z,94137.02
2019-03-04T18:20:55.966Z,94135.85
2019-03-04T18:23:24.094Z,94160.27
2019-03-04T18:26:06.710Z,94154.48
2019-03-04T18:29:17.897Z,94173.22
2019-03-04T18:32:18.100Z,94184.41
2019-03-04T18:35:29.585Z,94200.78
2019-03-04T18:38:09.850Z,94205.09
2019-03-04T18:41:11.337Z,94203.55
2019-03-04T18:43:55.885Z,94212.22
2019-03-04T18:46:46.716Z,94242.48
2019-03-04T18:49:14.748Z,94248.92
2019-03-04T18:51:43.202Z,94257.28
2019-03-04T18:54:18.670Z,94265.41
2019-03-04T18:56:46.777Z,94267.05
2019-03-04T18:59:14.958Z,94274.00
2019-03-04T19:01:43.004Z,94279.94
2019-03-04T19:04:11.195Z,94280.79
2019-03-04T19:06:39.254Z,94301.34
2019-03-04T19:09:08.925Z,94299.34
2019-03-04T19:11:37.371Z,94302.17
2019-03-04T19:14:05.499Z,94308.61
2019-03-04T19:16:33.646Z,94304.54
2019-03-04T19:19:01.744Z,94309.00
2019-03-04T19:21:31.857Z,94304.02
2019-03-04T19:23:59.962Z,94300.34
2019-03-04T19:26:28.084Z,94308.83
2019-03-04T19:28:56.272Z,94309.88
2019-03-04T19:31:24.299Z,94319.95
2019-03-04T19:33:52.750Z,94317.70
2019-03-04T19:36:20.731Z,94326.36
2019-03-04T19:38:48.778Z,94340.05
2019-03-04T19:41:16.889Z,94336.55
2019-03-04T19:43:56.049Z,94348.45
2019-03-04T19:46:24.142Z,94359.31
2019-03-04T19:48:52.244Z,94352.46
2019-03-04T19:51:20.823Z,94351.56
2019-03-04T19:53:51.786Z,94350.06
2019-03-04T19:56:19.901Z,94350.52
2019-03-04T19:58:48.469Z,94357.70
2019-03-04T20:01:16.696Z,94355.93
2019-03-04T20:03:44.831Z,94361.14
2019-03-04T20:06:12.983Z,94366.56
2019-03-04T20:08:41.127Z,94365.80
2019-03-04T20:11:09.357Z,94366.81
2019-03-04T20:13:37.504Z,94362.15
2019-03-04T20:16:06.900Z,94358.77
2019-03-04T20:18:34.999Z,94350.42
2019-03-04T20:21:03.119Z,94364.62
2019-03-04T20:23:31.424Z,94367.56
2019-03-04T20:26:00.098Z,94363.49
2019-03-04T20:28:28.214Z,94369.53
2019-03-04T20:30:56.812Z,94371.52
2019-03-04T20:33:26.848Z,94374.25
2019-03-04T20:35:55.897Z,94372.64
2019-03-04T20:38:45.055Z,94376.60
2019-03-04T20:41:13.761Z,94376.96
2019-03-04T20:43:41.882Z,94386.86
2019-03-04T20:46:10.094Z,94393.98
2019-03-04T20:48:38.191Z,94402.78
2019-03-04T20:51:07.760Z,94404.83
2019-03-04T20:53:36.995Z,94413.70
2019-03-04T20:56:05.088Z,94426.42
2019-03-04T20:58:33.851Z,94412.06
2019-03-04T21:01:01.946Z,94421.55
2019-03-04T21:03:34.840Z,94432.84
2019-03-04T21:06:00.818Z,94443.52
2019-03-04T21:08:29.237Z,94449.32
2019-03-04T21:10:57.568Z,94454.66
2019-03-04T21:13:35.244Z,94465.78
2019-03-04T21:15:56.024Z,94462.06
2019-03-04T21:18:24.599Z,94471.72
2019-03-04T21:20:52.890Z,94469.78
2019-03-04T21:23:21.563Z,94471.40
2019-03-04T21:26:03.806Z,94485.70
2019-03-04T21:28:44.687Z,94487.00
2019-03-04T21:31:41.104Z,94487.11
2019-03-04T21:34:43.847Z,94489.55
2019-03-04T21:37:42.361Z,94506.59
2019-03-04T21:40:36.172Z,94502.30
2019-03-04T21:43:11.683Z,94500.58
2019-03-04T21:46:08.821Z,94510.63
2019-03-04T21:48:59.163Z,94514.77
2019-03-04T21:51:53.902Z,94518.05
2019-03-04T21:54:21.728Z,94517.62
2019-03-04T21:57:14.649Z,94517.94
2019-03-04T21:59:43.547Z,94524.14
2019-03-04T22:02:18.255Z,94516.46
2019-03-04T22:04:46.008Z,94508.97
2019-03-04T22:07:15.103Z,94530.95
2019-03-04T22:09:42.746Z,94535.13
2019-03-04T22:12:12.490Z,94535.13
2019-03-04T22:14:40.007Z,94545.47
2019-03-04T22:17:07.660Z,94536.92
2019-03-04T22:19:35.171Z,94538.89
2019-03-04T22:22:02.697Z,94541.09
2019-03-04T22:24:30.177Z,94547.23
2019-03-04T22:26:57.680Z,94539.34
2019-03-04T22:29:25.215Z,94544.75
2019-03-04T22:31:52.757Z,94535.36
2019-03-04T22:34:20.225Z,94531.52
2019-03-04T22:36:48.163Z,94535.87
2019-03-04T22:39:15.798Z,94542.45
2019-03-04T22:41:43.408Z,94560.83
2019-03-04T22:44:10.961Z,94568.36
2019-03-04T22:46:38.811Z,94563.99
2019-03-04T22:49:06.329Z,94560.48
2019-03-04T22:51:33.816Z,94562.46
2019-03-04T22:54:02.075Z,94568.92
2019-03-04T22:56:29.600Z,94563.81
2019-03-04T22:58:57.097Z,94569.00
2019-03-04T23:01:55.218Z,94562.12
2019-03-04T23:04:41.132Z,94565.65
2019-03-04T23:07:14.021Z,94560.15
2019-03-04T23:10:06.060Z,94559.56
2019-03-04T23:12:48.637Z,94567.53
2019-03-04T23:15:22.428Z,94574.97
2019-03-04T23:17:50.093Z,94582.78
2019-03-04T23:20:17.525Z,94590.34
2019-03-04T23:22:45.057Z,94594.59
2019-03-04T23:25:23.139Z,94587.32
2019-03-04T23:27:50.660Z,94595.71
2019-03-04T23:30:18.237Z,94599.80
2019-03-04T23:32:47.761Z,94590.18
2019-03-04T23:35:15.288Z,94598.52
2019-03-04T23:37:42.897Z,94603.69
2019-03-04T23:40:10.695Z,94615.45
2019-03-04T23:42:38.329Z,94621.36
2019-03-04T23:45:08.027Z,94617.28
2019-03-04T23:47:37.155Z,94615.88
2019-03-04T23:50:13.518Z,94617.53
2019-03-04T23:52:40.938Z,94623.73
2019-03-04T23:55:08.495Z,94626.25
2019-03-04T23:57:36.018Z,94629.45
